Alida, Canada
Current Conditions -  °F | °C
As of 5:00 AM on Sunday 21 Dec 2014 (Local Time) from CYEN Reporting Station
Clear Clear  
Wind Chill: 12°   Ceiling: Unl
Heat Index: 12°   Visibility: 12mi
Dew Point:   Wind: 3mph
Humidity: 85%   Direction: 110°ESE
Pressure: 29.56"   Gusts: NA
Location:  49.38°N, 101.87°W
Report Text: CYEN 211100Z 11003KT 12SM SKC M11/M13 A2956 RMK FG SLP045
Loading
Personal Weather Stations






























Interactive Weather Map New forecast layout! Learn more

10-Day Weather Forecast

Advertisements
Track Severe Weather on mobile